createdAt,value
2018-07-11T00:02:08.345Z,90.20
2018-07-11T00:04:37.760Z,90.10
2018-07-11T00:07:07.764Z,90.10
2018-07-11T00:09:36.575Z,90.10
2018-07-11T00:12:05.497Z,90.20
2018-07-11T00:14:34.264Z,90.10
2018-07-11T00:17:06.081Z,90.00
2018-07-11T00:19:35.868Z,89.90
2018-07-11T00:22:05.972Z,89.70
2018-07-11T00:24:35.537Z,89.60
2018-07-11T00:27:04.867Z,89.40
2018-07-11T00:29:33.861Z,88.90
2018-07-11T00:32:03.326Z,89.10
2018-07-11T00:34:32.222Z,89.00
2018-07-11T00:37:01.155Z,88.80
2018-07-11T00:39:37.544Z,88.50
2018-07-11T00:44:34.989Z,88.40
2018-07-11T00:47:04.378Z,88.50
2018-07-11T00:49:33.227Z,88.00
2018-07-11T00:52:02.069Z,87.90
2018-07-11T00:54:30.981Z,87.70
2018-07-11T00:57:00.348Z,87.70
2018-07-11T00:59:30.995Z,88.10
2018-07-11T01:02:04.624Z,87.30
2018-07-11T01:04:33.555Z,87.40
2018-07-11T01:07:04.133Z,87.70
2018-07-11T01:09:36.330Z,87.50
2018-07-11T01:14:33.657Z,86.80
2018-07-11T01:17:02.625Z,86.70
2018-07-11T01:19:31.610Z,86.70
2018-07-11T01:22:04.428Z,86.50
2018-07-11T01:24:33.420Z,86.30
2018-07-11T01:27:02.289Z,86.30
2018-07-11T01:29:31.053Z,86.00
2018-07-11T01:32:00.417Z,86.10
2018-07-11T01:34:29.601Z,86.10
2018-07-11T01:36:58.423Z,86.70
2018-07-11T01:39:27.332Z,86.40
2018-07-11T01:41:56.092Z,86.10
2018-07-11T01:44:24.984Z,86.90
2018-07-11T01:46:53.796Z,87.00
2018-07-11T01:49:23.229Z,86.80
2018-07-11T01:52:03.028Z,87.20
2018-07-11T01:54:31.958Z,88.00
2018-07-11T01:57:00.908Z,88.60
2018-07-11T01:59:35.608Z,88.80
2018-07-11T02:02:04.979Z,88.70
2018-07-11T02:04:37.799Z,89.00
2018-07-11T02:07:07.130Z,89.30
2018-07-11T02:12:04.898Z,88.40
2018-07-11T02:14:34.468Z,88.50
2018-07-11T02:17:03.395Z,89.20
2018-07-11T02:19:32.417Z,89.10
2018-07-11T02:22:01.569Z,88.40
2018-07-11T02:24:31.273Z,88.50
2018-07-11T02:27:00.867Z,89.10
2018-07-11T02:29:34.187Z,89.60
2018-07-11T02:32:03.636Z,89.20
2018-07-11T02:34:35.078Z,89.70
2018-07-11T02:39:33.296Z,90.40
2018-07-11T02:42:02.503Z,90.30
2018-07-11T02:44:31.529Z,90.10
2018-07-11T02:47:05.584Z,89.70
2018-07-11T02:49:34.777Z,88.80
2018-07-11T02:52:03.840Z,88.30
2018-07-11T02:54:36.797Z,88.00
2018-07-11T02:57:05.777Z,88.40
2018-07-11T02:59:35.188Z,88.60
2018-07-11T03:02:04.196Z,88.70
2018-07-11T03:04:33.726Z,88.50
2018-07-11T03:07:02.709Z,88.50
2018-07-11T03:09:31.524Z,88.50
2018-07-11T03:12:00.547Z,88.60
2018-07-11T03:16:57.902Z,89.10
2018-07-11T03:19:28.090Z,88.30
2018-07-11T03:21:56.985Z,87.60
2018-07-11T03:24:25.763Z,87.00
2018-07-11T03:26:54.969Z,87.60
2018-07-11T03:29:23.847Z,87.00
2018-07-11T03:31:52.585Z,87.40
2018-07-11T03:34:21.476Z,86.70
2018-07-11T03:36:50.312Z,84.80
2018-07-11T03:39:18.988Z,84.90
2018-07-11T03:41:47.960Z,85.10
2018-07-11T03:44:16.705Z,85.10
2018-07-11T03:46:45.966Z,85.40
2018-07-11T03:49:14.767Z,85.30
2018-07-11T03:51:44.129Z,85.80
2018-07-11T03:54:12.963Z,86.90
2018-07-11T03:56:41.853Z,87.30
2018-07-11T03:59:10.608Z,86.90
2018-07-11T04:01:39.462Z,87.10
2018-07-11T04:04:08.221Z,87.20
2018-07-11T04:06:37.037Z,87.40
2018-07-11T04:09:06.521Z,87.30
2018-07-11T04:11:39.767Z,87.40
2018-07-11T04:14:08.872Z,87.40
2018-07-11T04:16:37.692Z,86.80
2018-07-11T04:19:06.618Z,86.70
2018-07-11T04:21:35.363Z,86.70
2018-07-11T04:24:05.147Z,87.00
2018-07-11T04:26:33.986Z,87.00
2018-07-11T04:29:02.838Z,87.10
2018-07-11T04:31:32.215Z,87.30
2018-07-11T04:34:01.055Z,86.90
2018-07-11T04:36:29.890Z,86.70
2018-07-11T04:38:58.805Z,86.80
2018-07-11T04:41:27.768Z,86.40
2018-07-11T04:43:57.886Z,86.00
2018-07-11T04:46:26.870Z,86.10
2018-07-11T04:48:55.756Z,85.90
2018-07-11T04:51:24.580Z,85.90
2018-07-11T04:53:54.747Z,85.30
2018-07-11T04:56:23.798Z,84.90
2018-07-11T04:58:58.898Z,83.80
2018-07-11T05:01:28.917Z,83.00
2018-07-11T05:03:59.902Z,83.20
2018-07-11T05:06:28.670Z,83.20
2018-07-11T05:08:58.140Z,83.50
2018-07-11T05:11:27.302Z,83.60
2018-07-11T05:16:24.532Z,83.60
2018-07-11T05:18:54.281Z,83.30
2018-07-11T05:21:23.072Z,84.20
2018-07-11T05:23:51.804Z,84.60
2018-07-11T05:26:21.278Z,84.00
2018-07-11T05:28:50.060Z,83.20
2018-07-11T05:31:18.837Z,83.40
2018-07-11T05:36:16.079Z,83.30
2018-07-11T05:38:44.809Z,83.30
2018-07-11T05:41:13.579Z,83.00
2018-07-11T05:43:42.288Z,82.80
2018-07-11T05:46:10.969Z,82.90
2018-07-11T05:51:08.213Z,82.30
2018-07-11T05:53:36.896Z,82.00
2018-07-11T05:56:05.685Z,82.40
2018-07-11T05:58:34.813Z,82.90
2018-07-11T06:01:03.495Z,83.00
2018-07-11T06:03:32.358Z,82.90
2018-07-11T06:06:01.090Z,82.70
2018-07-11T06:08:29.865Z,82.70
2018-07-11T06:10:59.325Z,83.20
2018-07-11T06:13:32.844Z,83.80
2018-07-11T06:16:01.613Z,83.70
2018-07-11T06:18:30.309Z,84.40
2018-07-11T06:20:59.224Z,85.00
2018-07-11T06:23:28.054Z,85.50
2018-07-11T06:25:56.787Z,86.50
2018-07-11T06:28:26.078Z,86.90
2018-07-11T06:30:54.827Z,87.60
2018-07-11T06:33:23.634Z,88.30
2018-07-11T06:35:53.771Z,88.60
2018-07-11T06:38:22.556Z,88.50
2018-07-11T06:40:51.493Z,89.40
2018-07-11T06:43:20.237Z,88.30
2018-07-11T06:45:49.196Z,87.70
2018-07-11T06:48:18.265Z,87.00
2018-07-11T06:50:46.977Z,86.50
2018-07-11T06:53:15.713Z,86.50
2018-07-11T06:55:44.486Z,86.10
2018-07-11T06:58:13.239Z,85.60
2018-07-11T07:00:42.014Z,85.00
2018-07-11T07:05:39.600Z,83.70
2018-07-11T07:08:08.331Z,82.50
2018-07-11T07:10:37.131Z,82.30
2018-07-11T07:13:05.957Z,82.80
2018-07-11T07:15:34.725Z,82.10
2018-07-11T07:18:04.653Z,81.90
2018-07-11T07:20:33.916Z,81.40
2018-07-11T07:23:02.678Z,80.30
2018-07-11T07:25:31.400Z,81.00
2018-07-11T07:28:00.117Z,81.60
2018-07-11T07:32:57.499Z,81.30
2018-07-11T07:35:26.283Z,80.90
2018-07-11T07:37:59.655Z,80.60
2018-07-11T07:40:29.327Z,79.50
2018-07-11T07:42:58.713Z,79.80
2018-07-11T07:45:31.597Z,79.60
2018-07-11T07:48:01.912Z,79.70
2018-07-11T07:50:31.669Z,79.40
2018-07-11T07:53:00.527Z,77.20
2018-07-11T07:55:29.998Z,76.20
2018-07-11T07:57:58.797Z,75.00
2018-07-11T08:00:28.882Z,75.10
2018-07-11T08:02:58.278Z,76.00
2018-07-11T08:05:31.134Z,76.20
2018-07-11T08:07:59.931Z,74.40
2018-07-11T08:10:28.711Z,76.00
2018-07-11T08:12:57.503Z,76.80
2018-07-11T08:15:26.927Z,75.60
2018-07-11T08:17:55.929Z,73.90
2018-07-11T08:20:25.267Z,73.00
2018-07-11T08:23:15.037Z,73.40
2018-07-11T08:25:56.352Z,73.40
2018-07-11T08:28:36.334Z,72.80
2018-07-11T08:31:45.670Z,72.50
2018-07-11T08:35:31.213Z,73.20
2018-07-11T08:38:25.159Z,73.30
2018-07-11T08:41:34.913Z,72.30
2018-07-11T08:46:19.065Z,70.20
2018-07-11T08:51:03.716Z,70.20
2018-07-11T08:53:43.577Z,70.40
2018-07-11T08:58:27.146Z,69.60
2018-07-11T09:03:10.246Z,70.10
2018-07-11T09:05:54.995Z,68.80
2018-07-11T09:15:51.852Z,68.80
2018-07-11T09:18:30.678Z,69.30
2018-07-11T09:22:12.823Z,70.30
2018-07-11T09:24:46.774Z,69.10
2018-07-11T09:27:15.565Z,65.70
2018-07-11T09:29:45.089Z,64.70
2018-07-11T09:32:14.450Z,65.80
2018-07-11T09:34:43.845Z,66.10
2018-07-11T09:39:42.760Z,65.80
2018-07-11T09:42:12.141Z,66.50
2018-07-11T09:44:41.888Z,67.30
2018-07-11T09:47:15.866Z,67.20
2018-07-11T09:49:44.746Z,66.20
2018-07-11T09:52:13.570Z,65.10
2018-07-11T09:54:42.552Z,64.70
2018-07-11T09:57:11.396Z,64.90
2018-07-11T09:59:40.258Z,64.10
2018-07-11T10:02:09.045Z,64.30
2018-07-11T10:04:37.985Z,62.20
2018-07-11T10:09:35.344Z,62.60
2018-07-11T10:12:04.740Z,63.20
2018-07-11T10:14:33.545Z,63.50
2018-07-11T10:17:02.920Z,63.30
2018-07-11T10:19:31.768Z,60.60
2018-07-11T10:22:00.577Z,62.30
2018-07-11T10:26:58.672Z,62.70
2018-07-11T10:29:31.892Z,63.00
2018-07-11T10:32:00.680Z,60.70
2018-07-11T10:34:29.513Z,60.60
2018-07-11T10:36:58.497Z,60.60
2018-07-11T10:39:27.666Z,59.90
2018-07-11T10:41:56.602Z,59.30
2018-07-11T10:44:26.417Z,59.00
2018-07-11T10:47:00.451Z,58.40
2018-07-11T10:49:31.360Z,57.60
2018-07-11T10:54:29.354Z,58.60
2018-07-11T10:59:26.732Z,59.00
2018-07-11T11:04:24.193Z,58.20
2018-07-11T11:06:53.177Z,57.60
2018-07-11T11:09:22.545Z,57.70
2018-07-11T11:11:52.684Z,57.30
2018-07-11T11:14:22.130Z,57.40
2018-07-11T11:16:51.077Z,57.50
2018-07-11T11:19:19.923Z,58.50
2018-07-11T11:21:48.884Z,58.20
2018-07-11T11:24:17.982Z,58.00
2018-07-11T11:26:46.754Z,57.40
2018-07-11T11:29:15.494Z,58.00
2018-07-11T11:31:44.301Z,57.20
2018-07-11T11:34:13.063Z,56.40
2018-07-11T11:36:41.945Z,57.00
2018-07-11T11:39:10.869Z,56.90
2018-07-11T11:41:39.818Z,57.10
2018-07-11T11:44:09.644Z,57.10
2018-07-11T11:46:38.873Z,56.40
2018-07-11T11:49:08.915Z,55.70
2018-07-11T11:51:37.764Z,56.00
2018-07-11T11:54:06.632Z,56.30
2018-07-11T11:56:36.213Z,56.50
2018-07-11T11:59:06.324Z,56.40
2018-07-11T12:01:35.644Z,56.10
2018-07-11T12:06:33.746Z,55.70
2018-07-11T12:09:02.599Z,55.10
2018-07-11T12:11:31.467Z,54.40
2018-07-11T12:14:00.310Z,54.30
2018-07-11T12:16:29.262Z,54.20
2018-07-11T12:18:58.380Z,54.20
2018-07-11T12:21:28.946Z,53.60
2018-07-11T12:23:58.653Z,53.60
2018-07-11T12:26:29.336Z,54.60
2018-07-11T12:28:58.205Z,54.70
2018-07-11T12:31:27.542Z,55.00
2018-07-11T12:33:56.377Z,55.30
2018-07-11T12:36:25.348Z,55.60
2018-07-11T12:38:55.732Z,56.10
2018-07-11T12:41:24.795Z,56.60
2018-07-11T12:46:23.040Z,57.10
2018-07-11T12:48:57.141Z,57.70
2018-07-11T12:51:27.905Z,57.90
2018-07-11T12:53:56.773Z,58.10
2018-07-11T12:56:28.280Z,58.20
2018-07-11T12:58:57.941Z,58.40
2018-07-11T13:01:32.997Z,58.40
2018-07-11T13:04:02.530Z,58.60
2018-07-11T13:06:31.497Z,58.50
2018-07-11T13:09:00.361Z,58.80
2018-07-11T13:11:29.757Z,59.20
2018-07-11T13:13:58.782Z,59.10
2018-07-11T13:16:32.010Z,58.80
2018-07-11T13:19:00.802Z,58.70
2018-07-11T13:21:30.141Z,59.20
2018-07-11T13:23:59.041Z,59.60
2018-07-11T13:26:29.191Z,59.10
2018-07-11T13:28:59.085Z,58.80
2018-07-11T13:31:29.556Z,59.20
2018-07-11T13:33:58.485Z,59.50
2018-07-11T13:36:27.419Z,60.00
2018-07-11T13:38:56.180Z,60.00
2018-07-11T13:41:25.092Z,60.50
2018-07-11T13:43:53.877Z,60.40
2018-07-11T13:46:23.387Z,59.50
2018-07-11T13:48:52.273Z,59.10
2018-07-11T13:51:21.969Z,58.10
2018-07-11T13:53:51.119Z,58.40
2018-07-11T13:56:20.168Z,57.70
2018-07-11T13:58:49.689Z,56.50
2018-07-11T14:01:19.099Z,55.60
2018-07-11T14:03:48.839Z,54.60
2018-07-11T14:06:22.090Z,51.20
2018-07-11T14:08:51.824Z,51.10
2018-07-11T14:11:20.672Z,51.30
2018-07-11T14:13:49.469Z,50.00
2018-07-11T14:16:18.320Z,51.30
2018-07-11T14:18:47.290Z,51.40
2018-07-11T14:21:16.097Z,52.00
2018-07-11T14:23:44.984Z,52.30
2018-07-11T14:26:15.250Z,52.70
2018-07-11T14:28:50.272Z,52.80
2018-07-11T14:31:34.494Z,54.70
2018-07-11T14:36:36.494Z,57.80
2018-07-11T14:39:07.016Z,58.60
2018-07-11T14:41:35.909Z,59.70
2018-07-11T14:44:04.718Z,60.40
2018-07-11T14:46:35.103Z,60.80
2018-07-11T14:49:04.363Z,61.30
2018-07-11T14:51:37.999Z,61.40
2018-07-11T14:54:07.282Z,62.30
2018-07-11T14:56:36.854Z,62.80
2018-07-11T14:59:06.185Z,62.90
2018-07-11T15:01:34.939Z,63.40
2018-07-11T15:04:03.859Z,63.80
2018-07-11T15:06:32.700Z,64.70
2018-07-11T15:09:01.825Z,65.10
2018-07-11T15:11:30.615Z,65.30
2018-07-11T15:14:00.761Z,65.90
2018-07-11T15:16:29.571Z,66.40
2018-07-11T15:18:58.521Z,66.40
2018-07-11T15:21:29.109Z,67.30
2018-07-11T15:23:57.973Z,67.30
2018-07-11T15:26:31.542Z,67.20
2018-07-11T15:29:00.271Z,66.60
2018-07-11T15:31:30.346Z,65.70
2018-07-11T15:33:59.062Z,65.40
2018-07-11T15:36:29.121Z,65.20
2018-07-11T15:38:58.155Z,64.70
2018-07-11T15:41:27.602Z,64.50
2018-07-11T15:43:56.610Z,64.90
2018-07-11T15:46:26.316Z,65.50
2018-07-11T15:48:55.094Z,65.90
2018-07-11T15:51:23.971Z,66.30
2018-07-11T15:53:52.832Z,66.50
2018-07-11T15:56:22.262Z,66.60
2018-07-11T15:58:57.594Z,66.20
2018-07-11T16:01:33.566Z,66.20
2018-07-11T16:04:03.580Z,66.30
2018-07-11T16:06:33.322Z,65.60
2018-07-11T16:09:06.156Z,65.10
2018-07-11T16:11:38.578Z,64.80
2018-07-11T16:14:08.949Z,64.20
2018-07-11T16:16:37.853Z,63.10
2018-07-11T16:19:07.557Z,62.70
2018-07-11T16:21:37.569Z,61.70
2018-07-11T16:24:06.470Z,62.10
2018-07-11T16:26:36.709Z,62.60
2018-07-11T16:29:05.574Z,63.40
2018-07-11T16:31:34.368Z,64.00
2018-07-11T16:34:03.221Z,64.50
2018-07-11T16:36:32.139Z,65.00
2018-07-11T16:39:00.937Z,66.00
2018-07-11T16:41:30.390Z,66.90
2018-07-11T16:43:59.291Z,66.60
2018-07-11T16:48:56.796Z,66.60
2018-07-11T16:51:25.733Z,66.30
2018-07-11T16:53:56.692Z,65.60
2018-07-11T16:56:26.209Z,64.60
2018-07-11T17:01:33.482Z,62.60
2018-07-11T17:04:05.601Z,62.30
2018-07-11T17:06:35.884Z,61.60
2018-07-11T17:09:05.588Z,61.10
2018-07-11T17:11:34.577Z,59.60
2018-07-11T17:14:05.234Z,59.30
2018-07-11T17:16:36.717Z,58.60
2018-07-11T17:19:10.215Z,58.20
2018-07-11T17:21:43.916Z,58.00
2018-07-11T17:24:15.895Z,58.20
2018-07-11T17:26:46.428Z,57.90
2018-07-11T17:29:28.033Z,58.50
2018-07-11T17:32:04.286Z,58.10
2018-07-11T17:34:34.213Z,58.50
2018-07-11T17:37:05.595Z,58.50
2018-07-11T17:39:58.107Z,58.70
2018-07-11T17:42:28.598Z,58.50
2018-07-11T17:45:06.759Z,58.50
2018-07-11T17:47:43.977Z,58.10
2018-07-11T17:50:13.082Z,57.40
2018-07-11T17:52:53.955Z,57.20
2018-07-11T17:58:05.055Z,57.30
2018-07-11T18:00:44.737Z,57.00
2018-07-11T18:10:07.649Z,57.70
2018-07-11T18:12:54.474Z,56.80
2018-07-11T18:15:31.449Z,57.50
2018-07-11T18:18:39.875Z,57.60
2018-07-11T18:21:23.870Z,57.70
2018-07-11T18:24:00.395Z,57.40
2018-07-11T18:27:11.759Z,56.80
2018-07-11T18:30:23.898Z,56.90
2018-07-11T18:34:03.620Z,56.80
2018-07-11T18:36:45.674Z,56.80
2018-07-11T18:39:25.768Z,57.70
2018-07-11T18:43:32.803Z,58.50
2018-07-11T18:46:43.185Z,59.00
2018-07-11T18:49:24.477Z,59.50
2018-07-11T18:52:31.443Z,59.80
2018-07-11T18:55:12.824Z,60.10
2018-07-11T18:57:55.595Z,60.40
2018-07-11T19:00:59.929Z,60.90
2018-07-11T19:03:35.008Z,61.20
2018-07-11T19:08:17.144Z,61.30
2018-07-11T19:10:54.169Z,61.50
2018-07-11T19:13:30.481Z,62.20
2018-07-11T19:16:05.570Z,62.30
2018-07-11T19:18:46.735Z,62.20
2018-07-11T19:21:19.088Z,62.40
2018-07-11T19:23:56.997Z,62.70
2018-07-11T19:26:46.535Z,63.00
2018-07-11T19:30:25.789Z,63.20
2018-07-11T19:35:09.272Z,63.60
2018-07-11T19:38:07.875Z,63.80
2018-07-11T19:41:26.542Z,64.20
2018-07-11T19:46:12.016Z,64.60
2018-07-11T19:49:06.918Z,65.20
2018-07-11T19:51:44.341Z,66.20
2018-07-11T19:54:24.605Z,66.40
2018-07-11T19:56:54.729Z,66.80
2018-07-11T19:59:23.843Z,67.50
2018-07-11T20:04:21.313Z,68.20
2018-07-11T20:09:18.801Z,68.50
2018-07-11T20:11:48.233Z,68.90
2018-07-11T20:17:07.844Z,69.20
2018-07-11T20:19:36.715Z,69.00
2018-07-11T20:22:05.567Z,68.70
2018-07-11T20:27:02.748Z,69.00
2018-07-11T20:32:00.061Z,70.70
2018-07-11T20:34:28.869Z,71.90
2018-07-11T20:36:57.919Z,72.90
2018-07-11T20:39:27.811Z,73.50
2018-07-11T20:41:58.417Z,74.00
2018-07-11T20:44:27.444Z,73.90
2018-07-11T20:46:56.801Z,73.80
2018-07-11T20:49:30.786Z,73.70
2018-07-11T20:51:59.688Z,74.20
2018-07-11T20:54:30.168Z,74.30
2018-07-11T20:56:59.723Z,74.10
2018-07-11T20:59:39.559Z,73.90
2018-07-11T21:02:19.519Z,73.90
2018-07-11T21:07:07.228Z,73.30
2018-07-11T21:11:47.657Z,73.40
2018-07-11T21:14:29.939Z,72.60
2018-07-11T21:17:17.290Z,73.30
2018-07-11T21:19:46.033Z,73.30
2018-07-11T21:22:14.905Z,73.40
2018-07-11T21:24:43.698Z,73.20
2018-07-11T21:27:12.486Z,73.20
2018-07-11T21:29:41.266Z,73.40
2018-07-11T21:32:10.042Z,73.30
2018-07-11T21:34:39.417Z,73.20
2018-07-11T21:37:08.138Z,72.90
2018-07-11T21:39:42.425Z,73.00
2018-07-11T21:42:11.176Z,72.90
2018-07-11T21:47:08.513Z,72.70
2018-07-11T21:49:37.315Z,72.50
2018-07-11T21:52:07.102Z,72.50
2018-07-11T21:54:35.877Z,72.90
2018-07-11T21:57:08.864Z,72.70
2018-07-11T21:59:37.881Z,72.80
2018-07-11T22:02:11.093Z,72.90
2018-07-11T22:04:40.413Z,72.50
2018-07-11T22:07:09.567Z,72.70
2018-07-11T22:09:38.437Z,72.60
2018-07-11T22:12:08.962Z,73.50
2018-07-11T22:14:37.805Z,73.50
2018-07-11T22:17:17.478Z,73.80
2018-07-11T22:19:44.934Z,73.50
2018-07-11T22:22:13.426Z,73.60
2018-07-11T22:24:40.881Z,72.90
2018-07-11T22:27:08.357Z,72.10
2018-07-11T22:29:36.096Z,71.90
2018-07-11T22:32:03.720Z,71.30
2018-07-11T22:34:31.178Z,70.50
2018-07-11T22:36:58.669Z,70.40
2018-07-11T22:39:26.421Z,70.00
2018-07-11T22:41:54.088Z,69.80
2018-07-11T22:44:21.534Z,70.00
2018-07-11T22:46:49.884Z,69.90
2018-07-11T22:49:17.798Z,69.60
2018-07-11T22:51:45.280Z,70.30
2018-07-11T22:54:12.914Z,70.00
2018-07-11T22:56:40.679Z,69.30
2018-07-11T22:59:08.100Z,68.90
2018-07-11T23:01:35.578Z,68.90
2018-07-11T23:04:03.254Z,68.50
2018-07-11T23:06:31.389Z,68.30
2018-07-11T23:08:59.277Z,68.00
2018-07-11T23:11:26.743Z,67.80
2018-07-11T23:13:54.373Z,67.70
2018-07-11T23:16:21.831Z,67.30
2018-07-11T23:18:49.286Z,67.20
2018-07-11T23:21:16.768Z,67.30
2018-07-11T23:23:44.227Z,67.80
2018-07-11T23:26:11.641Z,67.80
2018-07-11T23:28:39.164Z,67.60
2018-07-11T23:31:06.642Z,67.50
2018-07-11T23:33:34.089Z,67.40
2018-07-11T23:36:01.830Z,67.20
2018-07-11T23:38:30.562Z,67.10
2018-07-11T23:40:58.004Z,67.60
2018-07-11T23:43:25.747Z,67.90
2018-07-11T23:45:53.833Z,68.10
2018-07-11T23:48:21.271Z,68.30
2018-07-11T23:50:48.928Z,68.30
2018-07-11T23:53:16.345Z,68.80
2018-07-11T23:55:43.821Z,69.20
2018-07-11T23:58:11.340Z,69.40
